Kezdőlap
METAR-TAF:

METAR-TAF

Repülőterek :

Csengcsou, Kína

földrajzi szélesség: 34-43N, földrajzi hosszúság: 113-39E, magasság: 111 m

Jelenlegi meteorológiai megfigyelések

A jelentés 1 órával és 13 perccel ezelõtt készült, 18:00 UTC
Különbözõ irányokból fújó szél 2 kt
Hőmérséklet 27°C
Páratartalom 79%
Légköri nyomás 1005 hPa
Látótávolság 10 km, vagy több
felhőtlen 1500 m magasságban, és nincs gomolyfelhõ

METAR: ZHCC 071800Z VRB01MPS CAVOK 27/23 Q1005 NOSIG

Idő: 03:13 (19:13 UTC)

Előrejelzés

A jelentés 4 órával és 12 perccel ezelõtt készült, 15:01 UTC
Az előrejelzés 07-én 18 óra UTC és 08-én 18 óra UTC között érvényes
Dél-délkeleti szél 8 kt
Látótávolság: 6000 m

TAF: ZHCC 071501Z 0718/0818 15004MPS 6000 NSC TX33/0807Z TN25/0722Z

Meteorológiai megfigyelések és előrejelzések több, mint 4000 repülőtéren (METAR és TAF jelentéseket).

A térképen piros és sárga pontok jelzik az elérhető meteorológiai állomásokat.

Mozgassa az egeret a pont fölött, hogy megjelenjen az állomás neve.

Azután kattintson az időjárási megfigyelések és előrejelzések megtekintéséhez.

A térkép megváltoztatása: kattintson a fekete keresztel jelölt zöld gombra ráközelítéshez, a vonallal jelölt zöld gombra távolításhoz, vagy a zöld nyilakra a szomszédos térképek eléréséhez.


METAR-TAF: